createdAt,value
2022-11-23T00:03:20.366Z,97982.77
2022-11-23T00:08:24.368Z,97978.64
2022-11-23T00:13:28.068Z,97973.06
2022-11-23T00:18:32.051Z,97975.72
2022-11-23T00:23:35.965Z,97981.13
2022-11-23T00:28:40.957Z,97976.85
2022-11-23T00:33:51.842Z,97978.06
2022-11-23T00:38:55.648Z,97984.48
2022-11-23T00:43:59.743Z,97976.66
2022-11-23T00:49:04.832Z,97983.33
2022-11-23T00:54:19.490Z,97987.10
2022-11-23T00:59:25.582Z,97992.41
2022-11-23T01:04:30.392Z,97998.23
2022-11-23T01:09:36.352Z,98000.17
2022-11-23T01:14:40.724Z,97995.69
2022-11-23T01:19:45.077Z,97987.36
2022-11-23T01:24:50.753Z,97979.74
2022-11-23T01:29:59.236Z,97975.55
2022-11-23T01:40:41.409Z,97972.95
2022-11-23T01:46:06.568Z,97973.80
2022-11-23T01:51:18.598Z,97977.70
2022-11-23T01:56:31.654Z,97985.02
2022-11-23T02:01:38.806Z,97989.52
2022-11-23T02:07:07.492Z,97991.66
2022-11-23T02:12:14.900Z,97990.21
2022-11-23T02:17:22.321Z,97983.57
2022-11-23T02:22:48.497Z,97974.83
2022-11-23T02:27:52.981Z,97972.27
2022-11-23T02:32:57.411Z,97974.12
2022-11-23T02:38:09.030Z,97977.39
2022-11-23T02:43:13.191Z,97976.55
2022-11-23T02:48:23.135Z,97972.55
2022-11-23T02:53:27.426Z,97972.62
2022-11-23T02:58:31.506Z,97967.35
2022-11-23T03:03:38.008Z,97970.29
2022-11-23T03:08:42.023Z,97971.57
2022-11-23T03:13:45.739Z,97972.58
2022-11-23T03:18:53.367Z,97967.72
2022-11-23T03:24:00.456Z,97967.20
2022-11-23T03:29:05.546Z,97967.98
2022-11-23T03:34:10.470Z,97969.27
2022-11-23T03:39:15.332Z,97974.84
2022-11-23T03:44:38.437Z,97969.46
2022-11-23T03:49:44.438Z,97970.20
2022-11-23T03:54:48.674Z,97968.09
2022-11-23T03:59:52.837Z,97968.61
2022-11-23T04:04:56.688Z,97963.29
2022-11-23T04:10:20.886Z,97963.70
2022-11-23T04:15:47.939Z,97965.70
2022-11-23T04:20:52.145Z,97965.30
2022-11-23T04:26:02.152Z,97968.70
2022-11-23T04:31:08.243Z,97965.70
2022-11-23T04:36:21.075Z,97970.59
2022-11-23T04:41:25.428Z,97969.23
2022-11-23T04:46:33.583Z,97968.71
2022-11-23T04:52:13.402Z,97969.60
2022-11-23T04:57:22.371Z,97971.86
2022-11-23T05:02:27.857Z,97976.56
2022-11-23T05:07:50.680Z,97974.14
2022-11-23T05:12:58.670Z,97981.67
2022-11-23T05:18:19.415Z,97980.41
2022-11-23T05:23:24.275Z,97985.90
2022-11-23T05:28:40.683Z,97993.87
2022-11-23T05:33:46.545Z,97989.80
2022-11-23T05:38:52.955Z,97990.80
2022-11-23T05:44:03.449Z,97991.79
2022-11-23T05:49:10.659Z,97998.73
2022-11-23T05:54:15.381Z,98000.31
2022-11-23T05:59:31.065Z,98003.34
2022-11-23T06:04:38.703Z,97993.92
2022-11-23T06:09:45.334Z,98000.69
2022-11-23T06:14:54.208Z,98012.01
2022-11-23T06:19:59.791Z,98018.05
2022-11-23T06:25:10.106Z,98032.05
2022-11-23T06:30:15.643Z,98041.44
2022-11-23T06:35:31.326Z,98050.69
2022-11-23T06:40:39.929Z,98048.14
2022-11-23T06:45:43.756Z,98050.88
2022-11-23T06:50:51.010Z,98043.77
2022-11-23T06:56:00.557Z,98039.52
2022-11-23T07:01:08.245Z,98043.16
2022-11-23T07:06:26.559Z,98042.88
2022-11-23T07:11:41.500Z,98042.98
2022-11-23T07:16:54.966Z,98044.80
2022-11-23T07:22:09.199Z,98043.13
2022-11-23T07:27:17.673Z,98042.77
2022-11-23T07:32:22.360Z,98042.19
2022-11-23T07:37:27.012Z,98041.45
2022-11-23T07:42:45.370Z,98045.86
2022-11-23T07:48:02.240Z,98044.36
2022-11-23T07:53:07.439Z,98039.71
2022-11-23T07:58:12.127Z,98042.98
2022-11-23T08:03:33.895Z,98045.61
2022-11-23T08:08:43.249Z,98035.38
2022-11-23T08:13:55.681Z,98034.45
2022-11-23T08:18:59.339Z,98027.22
2022-11-23T08:24:03.743Z,98019.91
2022-11-23T08:29:07.911Z,98014.34
2022-11-23T08:34:16.730Z,98015.55
2022-11-23T08:39:42.037Z,98015.10
2022-11-23T08:44:49.344Z,98023.52
2022-11-23T08:49:58.802Z,98032.88
2022-11-23T08:55:04.815Z,98038.54
2022-11-23T09:00:09.035Z,98047.70
2022-11-23T09:06:03.929Z,98053.61
2022-11-23T09:11:13.816Z,98045.27
2022-11-23T09:16:20.179Z,98032.63
2022-11-23T09:21:24.759Z,98031.50
2022-11-23T09:26:29.469Z,98031.64
2022-11-23T09:31:33.496Z,98034.16
2022-11-23T09:36:38.845Z,98027.35
2022-11-23T09:42:35.930Z,98022.38
2022-11-23T09:48:09.042Z,98015.14
2022-11-23T09:53:21.448Z,98009.77
2022-11-23T09:58:32.961Z,97996.64
2022-11-23T10:03:48.721Z,97992.30
2022-11-23T10:09:13.390Z,97981.85
2022-11-23T10:14:36.554Z,97982.14
2022-11-23T10:20:15.262Z,97981.43
2022-11-23T10:25:22.843Z,97978.80
2022-11-23T11:53:11.775Z,97958.91
2022-11-23T12:04:53.114Z,97953.42
2022-11-23T12:17:46.612Z,97952.98
2022-11-23T12:24:27.116Z,97961.66
2022-11-23T12:29:57.693Z,97962.50
2022-11-23T12:41:41.089Z,97947.00
2022-11-23T12:47:03.755Z,97955.08
2022-11-23T12:53:00.616Z,97954.86
2022-11-23T12:58:16.527Z,97960.64
2022-11-23T13:04:56.097Z,97952.65
2022-11-23T13:10:05.337Z,97950.80
2022-11-23T13:15:50.686Z,97961.89
2022-11-23T13:21:20.485Z,97956.02
2022-11-23T13:26:30.117Z,97966.63
2022-11-23T13:31:36.260Z,97968.64
2022-11-23T13:37:11.086Z,97969.88
2022-11-23T13:42:15.321Z,97968.55
2022-11-23T13:47:27.824Z,97962.17
2022-11-23T13:52:33.110Z,97959.84
2022-11-23T13:57:57.371Z,97972.08
2022-11-23T14:03:41.119Z,97968.64
2022-11-23T14:08:47.672Z,97973.80
2022-11-23T14:25:25.188Z,97963.98
2022-11-23T14:30:40.424Z,97961.77
2022-11-23T14:35:59.383Z,97958.77
2022-11-23T14:41:15.495Z,97970.41
2022-11-23T14:46:22.070Z,97971.62
2022-11-23T14:51:29.095Z,97976.00
2022-11-23T14:56:36.056Z,97982.29
2022-11-23T15:02:41.101Z,97987.98
2022-11-23T15:08:17.854Z,97994.21
2022-11-23T15:14:08.680Z,97995.58
2022-11-23T15:19:29.590Z,98005.38
2022-11-23T15:24:52.115Z,98015.26
2022-11-23T15:29:58.898Z,98018.11
2022-11-23T15:35:11.014Z,98011.23
2022-11-23T15:40:16.959Z,98003.84
2022-11-23T15:45:59.822Z,97999.38
2022-11-23T15:51:06.829Z,98008.08
2022-11-23T15:56:22.873Z,98000.45
2022-11-23T16:01:26.688Z,98005.52
2022-11-23T16:06:41.927Z,98008.15
2022-11-23T16:11:46.253Z,98010.81
2022-11-23T16:17:15.295Z,98008.17
2022-11-23T16:22:37.145Z,98008.21
2022-11-23T16:27:45.018Z,98011.63
2022-11-23T16:32:48.396Z,98011.33
2022-11-23T16:44:12.985Z,98037.64
2022-11-23T16:49:19.574Z,98033.79
2022-11-23T16:54:25.085Z,98033.20
2022-11-23T16:59:28.715Z,98031.73
2022-11-23T17:04:35.144Z,98041.61
2022-11-23T17:11:22.328Z,98035.81
2022-11-23T17:16:08.991Z,98029.17
2022-11-23T17:21:39.747Z,98037.95
2022-11-23T17:26:53.551Z,98043.83
2022-11-23T17:31:57.432Z,98057.59
2022-11-23T17:37:02.626Z,98062.41
2022-11-23T17:42:06.969Z,98061.88
2022-11-23T17:47:34.571Z,98058.05
2022-11-23T17:52:52.735Z,98051.45
2022-11-23T17:57:56.610Z,98053.90
2022-11-23T18:02:59.758Z,98051.37
2022-11-23T18:08:03.527Z,98047.05
2022-11-23T18:13:06.485Z,98051.04
2022-11-23T18:18:09.801Z,98056.70
2022-11-23T18:23:12.791Z,98059.56
2022-11-23T18:28:18.852Z,98049.22
2022-11-23T18:33:22.581Z,98042.64
2022-11-23T18:38:25.736Z,98042.48
2022-11-23T18:43:28.774Z,98045.80
2022-11-23T18:48:32.509Z,98041.60
2022-11-23T18:53:36.434Z,98039.18
2022-11-23T18:58:42.136Z,98045.10
2022-11-23T19:03:47.338Z,98048.39
2022-11-23T19:09:01.009Z,98046.52
2022-11-23T19:14:12.832Z,98049.81
2022-11-23T19:19:20.236Z,98052.38
2022-11-23T19:24:41.667Z,98050.38
2022-11-23T19:30:15.814Z,98057.73
2022-11-23T19:36:06.933Z,98053.20
2022-11-23T19:41:11.729Z,98055.02
2022-11-23T19:46:47.297Z,98059.86
2022-11-23T19:51:54.056Z,98055.13
2022-11-23T19:57:08.015Z,98057.10
2022-11-23T20:02:23.810Z,98059.75
2022-11-23T20:07:28.020Z,98066.84
2022-11-23T20:12:32.288Z,98066.67
2022-11-23T20:17:52.221Z,98073.08
2022-11-23T20:22:58.901Z,98076.80
2022-11-23T20:28:11.922Z,98077.91
2022-11-23T20:33:19.938Z,98073.95
2022-11-23T20:38:24.584Z,98081.58
2022-11-23T20:43:31.067Z,98084.85
2022-11-23T20:48:39.831Z,98090.22
2022-11-23T20:54:27.721Z,98095.82
2022-11-23T20:59:36.894Z,98100.18
2022-11-23T21:04:47.225Z,98105.23
2022-11-23T21:09:59.554Z,98109.73
2022-11-23T21:15:20.333Z,98107.34
2022-11-23T21:20:25.570Z,98102.48
2022-11-23T21:25:38.859Z,98100.64
2022-11-23T21:30:56.719Z,98099.59
2022-11-23T21:36:07.287Z,98108.88
2022-11-23T21:47:03.996Z,98107.33
2022-11-23T21:52:10.795Z,98105.21
2022-11-23T21:57:19.077Z,98103.64
2022-11-23T22:02:28.278Z,98106.66
2022-11-23T22:07:47.447Z,98105.27
2022-11-23T22:13:25.265Z,98107.22
2022-11-23T22:18:40.252Z,98112.70
2022-11-23T22:24:04.096Z,98107.02
2022-11-23T22:29:14.670Z,98106.02
2022-11-23T22:34:23.840Z,98097.20
2022-11-23T22:39:28.518Z,98097.60
2022-11-23T22:45:02.967Z,98096.27
2022-11-23T22:50:08.381Z,98097.44
2022-11-23T22:55:16.010Z,98099.55
2022-11-23T23:00:30.792Z,98099.32
2022-11-23T23:05:36.271Z,98099.48
2022-11-23T23:10:44.644Z,98102.20
2022-11-23T23:16:04.743Z,98097.30
2022-11-23T23:21:14.906Z,98098.21
2022-11-23T23:26:36.959Z,98097.97
2022-11-23T23:31:47.120Z,98091.29
2022-11-23T23:42:36.657Z,98093.39
2022-11-23T23:48:16.101Z,98087.02
2022-11-23T23:59:25.958Z,98091.82
